CheckWX is a tool to help pilots better visualize weather data.  It is not intended as a substitute for an official pre-flight weather briefing.

09:50:11 UTC

KBAF METAR
Westfield-Barnes Regional Airport
Westfield/Springfield, Massachusetts, USA
Current

57 mins ago

KBAF 250853Z AUTO 00000KT 10SM OVC110 02/M02 A2990 RMK AO2 SLP127 T00221022 55002
Observed
Feb-25 @ 08:53 UTC
Visibility
10 SM
Flight Rules
VFR
Cloud Levels
  • Overcast at 11,000' AGL
Temperature
C / 36°F
Dewpoint
-2°C / 28°F
Humidity
75%
Altimeter
29.9" Hg
Pressure
1012.52 hPa
Previous

2 hours ago

KBAF 250753Z AUTO 00000KT 10SM OVC120 03/M02 A2989 RMK AO2 SLP124 T00281022
Observed
Feb-25 @ 07:53 UTC
Visibility
10 SM
Flight Rules
VFR
Cloud Levels
  • Overcast at 12,000' AGL
Temperature
C / 37°F
Dewpoint
-2°C / 28°F
Humidity
70%
Altimeter
29.89" Hg
Pressure
1012.22 hPa
Previous

3 hours ago

KBAF 250653Z AUTO 00000KT 10SM OVC120 03/M02 A2990 RMK AO2 SLP128 T00331022
Observed
Feb-25 @ 06:53 UTC
Visibility
10 SM
Flight Rules
VFR
Cloud Levels
  • Overcast at 12,000' AGL
Temperature
C / 37°F
Dewpoint
-2°C / 28°F
Humidity
70%
Altimeter
29.9" Hg
Pressure
1012.52 hPa